Latest Weather Observations for Cape Bruny AWS

IDT60801

Issued at 6:31 am EDT Wednesday 7 December 2016 (issued every 30 minutes, with the page automatically refreshed every 10 minutes)

About weather observations | Map of weather stations | Latest weather observations for TAS | Other Formats
Station Details ID: 094198 Name: CAPE BRUNY (CAPE BRUNY) Lat: -43.49 Lon: 147.14 Height: 59.7 m
Data from the previous 72 hours. | See also: Recent months at Cape Bruny AWS
Date/Time
EDT
Temp
°C
App
Temp
°C
Dew
Point
°C
Rel
Hum
%
Delta-T
°C
Wind Press
QNH
hPa
Press
MSL
hPa
Rain since
9am
mm
Dir  Spd
km/h
Gust
km/h
Spd
kts
Gust
kts
07/06:30am 12.9 9.3 6.9 67 2.9 NNW 15 22 8 12 1009.1 1009.0 0.0
07/06:00am 12.8 8.4 6.4 65 3.1 N 19 26 10 14 1008.8 1008.7 0.0
07/05:30am 13.2 8.1 6.1 62 3.4 NW 22 35 12 19 1008.7 1008.6 0.0
07/05:00am 13.3 8.5 5.7 60 3.6 WNW 20 35 11 19 1008.4 1008.3 0.0
07/04:30am 12.9 10.2 5.8 62 3.3 NNW 9 17 5 9 1008.6 1008.5 0.0
07/04:00am 11.8 9.0 5.0 63 3.1 NNW 9 13 5 7 1008.6 1008.5 0.0
07/03:30am 12.4 7.7 6.2 66 2.9 WNW 20 32 11 17 1008.7 1008.6 0.0
07/03:00am 11.6 8.8 5.3 65 2.9 NW 9 15 5 8 1008.8 1008.7 0.0
07/02:30am 11.8 7.5 5.4 65 3.0 N 17 22 9 12 1008.9 1008.8 0.0
07/02:00am 13.0 8.1 5.2 59 3.6 NW 20 35 11 19 1008.9 1008.8 0.0
07/01:30am 13.5 7.7 6.1 61 3.5 WNW 26 35 14 19 1008.9 1008.8 0.0
07/01:00am 13.5 7.0 4.9 56 4.0 WNW 28 41 15 22 1008.8 1008.7 0.0
07/12:30am 12.3 7.9 4.8 60 3.4 NNW 17 24 9 13 1009.2 1009.1 0.0
07/12:00am 13.5 7.0 4.9 56 4.0 WNW 28 41 15 22 1009.4 1009.4 0.0
 
Date/Time
EDT
Temp
°C
App
Temp
°C
Dew
Point
°C
Rel
Hum
%
Delta-T
°C
Wind Press
QNH
hPa
Press
MSL
hPa
Rain since
9am
mm
Dir  Spd
km/h
Gust
km/h
Spd
kts
Gust
kts
06/11:55pm 13.4 7.1 5.8 60 3.6 WNW 28 41 15 22 1009.5 1009.5 0.0
06/11:30pm 13.0 9.3 6.4 64 3.2 WNW 15 24 8 13 1009.8 1009.8 0.0
06/11:00pm 13.1 10.6 6.5 64 3.2 N 9 13 5 7 1009.8 1009.8 0.0
06/10:30pm 13.1 10.5 6.2 63 3.3 N 9 11 5 6 1009.9 1009.9 0.0
06/10:00pm 12.7 10.6 6.5 66 3.0 N 7 11 4 6 1009.7 1009.7 0.0
06/09:30pm 13.6 9.2 6.7 63 3.3 WNW 19 28 10 15 1009.5 1009.5 0.0
06/09:00pm 13.5 9.0 6.8 64 3.2 WNW 20 30 11 16 1009.2 1009.1 0.0
06/08:30pm 13.6 7.6 6.9 64 3.3 W 28 33 15 18 1009.1 1009.0 0.0
06/08:00pm 13.9 6.9 6.7 62 3.5 W 33 44 18 24 1009.1 1009.0 0.0
06/07:30pm 14.9 7.4 6.5 57 4.1 W 35 44 19 24 1008.8 1008.7 0.0
06/07:00pm 15.4 6.4 6.4 55 4.4 W 43 52 23 28 1008.5 1008.4 0.0
06/06:30pm 16.1 8.2 6.3 52 4.8 WNW 37 46 20 25 1008.2 1008.1 0.0
06/06:00pm 16.7 8.8 6.2 50 5.1 WNW 37 46 20 25 1007.9 1007.8 0.0
06/05:30pm 17.2 8.8 5.5 46 5.7 WNW 39 48 21 26 1008.0 1007.9 0.0
06/05:06pm 17.3 12.4 6.8 50 5.2 WNW 22 39 12 21 1007.9 1007.8 0.0
06/05:00pm 17.0 13.7 6.5 50 5.2 WNW 13 20 7 11 1008.1 1008.0 0.0
06/04:30pm 17.3 14.5 5.3 45 5.8 WNW 9 13 5 7 1008.3 1008.2 0.0
06/04:00pm 17.7 15.5 8.0 53 5.0 SW 9 30 5 16 1008.6 1008.5 0.0
06/03:30pm 16.5 13.8 7.4 55 4.6 SSW 11 17 6 9 1008.8 1008.7 0.0
06/03:00pm 16.7 14.6 8.4 58 4.3 W 9 17 5 9 1009.0 1008.9 0.0
06/02:30pm 15.3 12.5 8.5 64 3.5 SW 13 17 7 9 1009.2 1009.1 0.0
06/02:00pm 13.6 9.2 6.7 63 3.3 SW 19 30 10 16 1009.5 1009.5 0.0
06/01:30pm 15.6 12.9 5.8 52 4.7 W 9 15 5 8 1009.5 1009.5 0.0
06/01:00pm 16.2 11.8 7.2 55 4.5 WSW 20 28 11 15 1009.7 1009.7 0.0
06/12:30pm 15.1 11.3 5.9 54 4.4 WNW 15 20 8 11 1009.7 1009.7 0.0
06/12:00pm 16.0 12.6 5.9 51 4.9 WNW 13 17 7 9 1009.7 1009.7 0.0
06/11:30am 15.2 11.8 5.7 53 4.5 WNW 13 19 7 10 1009.8 1009.8 0.0
06/11:00am 13.5 10.6 4.4 54 4.2 W 9 17 5 9 1010.2 1010.2 0.0
06/10:30am 14.3 11.5 5.1 54 4.3 W 9 13 5 7 1010.1 1010.1 0.0
06/10:00am 12.9 10.5 5.1 59 3.6 NNW 7 17 4 9 1010.3 1010.3 0.0
06/09:30am 12.9 10.2 5.8 62 3.3 NNE 9 15 5 8 1010.4 1010.4 0.0
06/09:00am 12.5 9.4 5.7 63 3.2 N 11 17 6 9 1010.8 1010.8 0.0
06/08:30am 11.9 8.7 4.9 62 3.2 NNE 11 15 6 8 1010.6 1010.6 0.0
06/08:00am 11.6 8.8 5.3 65 2.9 N 9 13 5 7 1010.9 1010.9 0.0
06/07:30am 11.3 6.2 4.1 61 3.2 WNW 20 30 11 16 1011.0 1011.0 0.0
06/07:00am 11.0 6.0 4.5 64 2.9 WNW 20 28 11 15 1011.0 1011.0 0.0
06/06:30am 10.8 5.6 3.6 61 3.2 NW 20 24 11 13 1010.8 1010.8 0.0
06/06:00am 10.7 5.1 3.5 61 3.2 NW 22 28 12 15 1011.1 1011.1 0.0
06/05:30am 10.3 5.6 5.1 70 2.4 WNW 19 24 10 13 1011.1 1011.1 0.0
06/05:00am 10.4 6.4 5.0 69 2.5 WNW 15 22 8 12 1010.8 1010.8 0.0
06/04:30am 10.5 4.7 4.4 66 2.7 WNW 24 30 13 16 1010.2 1010.2 0.0
06/04:00am 10.3 4.4 3.8 64 2.9 NW 24 28 13 15 1010.1 1010.1 0.0
06/03:30am 10.2 3.5 3.5 63 2.9 NW 28 39 15 21 1010.3 1010.3 0.0
06/03:00am 10.4 3.7 3.4 62 3.1 NW 28 35 15 19 1010.9 1010.9 0.0
06/02:30am 10.7 4.8 3.7 62 3.1 NW 24 35 13 19 1011.0 1011.0 0.0
06/02:00am 10.5 5.7 2.8 59 3.3 NW 17 26 9 14 1010.4 1010.4 0.0
06/01:30am 10.0 5.8 3.7 65 2.8 NW 15 20 8 11 1011.1 1011.1 0.0
06/01:00am 9.6 5.4 3.6 66 2.6 NW 15 20 8 11 1011.3 1011.3 0.0
06/12:30am 9.6 5.3 3.4 65 2.7 NW 15 24 8 13 1011.4 1011.4 0.0
06/12:00am 10.8 6.3 4.3 64 2.9 WNW 17 22 9 12 1011.8 1011.8 0.0
 
Date/Time
EDT
Temp
°C
App
Temp
°C
Dew
Point
°C
Rel
Hum
%
Delta-T
°C
Wind Press
QNH
hPa
Press
MSL
hPa
Rain since
9am
mm
Dir  Spd
km/h
Gust
km/h
Spd
kts
Gust
kts
05/11:30pm 11.9 4.4 4.6 61 3.3 W 33 43 18 23 1011.6 1011.6 0.0
05/11:00pm 11.9 5.3 4.4 60 3.4 W 28 33 15 18 1011.6 1011.6 0.0
05/10:30pm 12.0 5.6 5.4 64 3.1 W 28 35 15 19 1011.7 1011.7 0.0
05/10:00pm 12.1 3.5 4.8 61 3.3 W 39 44 21 24 1011.9 1011.9 0.0
05/09:30pm 12.1 3.5 4.8 61 3.3 W 39 46 21 25 1011.8 1011.8 0.0
05/09:00pm 11.9 6.2 6.6 70 2.5 W 26 41 14 22 1011.2 1011.2 0.0
05/08:30pm 12.0 6.7 6.9 71 2.4 WSW 24 35 13 19 1011.0 1011.0 0.0
05/08:00pm 12.6 5.6 6.9 68 2.7 W 33 39 18 21 1010.2 1010.2 0.0
05/07:30pm 14.0 4.6 5.6 57 4.0 W 44 54 24 29 1009.7 1009.7 0.0
05/07:00pm 14.5 5.2 4.8 52 4.5 W 43 54 23 29 1009.4 1009.4 0.0
05/06:30pm 15.3 8.0 4.4 48 5.1 W 32 44 17 24 1009.0 1008.9 0.0
05/06:05pm 15.5 7.2 6.0 53 4.6 W 39 57 21 31 1008.4 1008.3 0.0
05/06:00pm 15.3 7.8 4.7 49 5.0 W 33 48 18 26 1008.6 1008.5 0.0
05/05:30pm 16.0 7.5 5.0 48 5.2 WNW 39 52 21 28 1008.2 1008.1 0.0
05/05:00pm 16.2 7.1 6.1 51 4.9 WNW 43 54 23 29 1007.9 1007.8 0.0
05/04:30pm 16.0 6.5 5.0 48 5.2 WNW 44 59 24 32 1007.8 1007.7 0.0
05/04:27pm 16.0 6.6 4.7 47 5.3 WNW 43 59 23 32 1007.7 1007.6 0.0
05/04:00pm 15.6 8.7 6.3 54 4.5 W 32 39 17 21 1007.7 1007.6 0.0
05/03:30pm 14.0 5.7 5.9 58 3.9 WSW 39 48 21 26 1007.3 1007.2 0.0
05/03:00pm 14.2 6.2 5.6 56 4.1 W 37 56 20 30 1007.0 1006.9 0.0
05/02:30pm 15.5 7.5 7.3 58 4.1 W 39 65 21 35 1006.4 1006.3 0.0
05/02:17pm 15.6 6.6 6.6 55 4.4 W 43 61 23 33 1006.4 1006.3 0.0
05/02:00pm 17.0 8.3 7.6 54 4.8 W 43 56 23 30 1006.0 1005.9 0.0
05/01:51pm 16.3 8.4 7.8 57 4.3 W 39 57 21 31 1006.1 1006.0 0.0
05/01:30pm 16.2 8.7 7.9 58 4.2 W 37 48 20 26 1005.8 1005.7 0.0
05/01:23pm 15.0 7.5 6.3 56 4.2 W 35 54 19 29 1005.7 1005.6 0.0
05/01:00pm 16.1 7.8 9.3 64 3.5 W 43 52 23 28 1005.1 1005.0 0.0
05/12:30pm 14.8 6.1 8.3 65 3.3 WSW 44 56 24 30 1004.6 1004.5 0.0
05/12:00pm 14.7 6.0 8.6 67 3.1 WSW 44 57 24 31 1003.9 1003.8 0.0
05/11:30am 14.7 5.8 9.1 69 2.9 WSW 46 57 25 31 1003.3 1003.2 0.0
05/11:06am 14.6 8.8 9.6 72 2.6 WSW 30 48 16 26 1002.8 1002.7 0.0
05/11:00am 14.3 7.8 9.1 71 2.7 WSW 33 48 18 26 1002.8 1002.7 0.0
05/10:47am 14.9 9.3 8.8 67 3.1 WSW 28 46 15 25 1002.4 1002.3 0.0
05/10:36am 16.6 9.6 8.3 58 4.2 W 35 48 19 26 1002.4 1002.3 0.0
05/10:30am 17.3 9.3 7.6 53 4.9 WNW 39 50 21 27 1002.0 1001.9 0.0
05/10:00am 15.9 8.5 8.4 61 3.8 WNW 37 57 20 31 1001.6 1001.6 0.0
05/09:30am 16.2 6.9 7.7 57 4.3 WNW 46 65 25 35 1000.7 1000.7 0.0
05/09:00am 15.8 4.9 7.3 57 4.3 WNW 54 83 29 45 999.9 999.9 2.4
05/08:33am 15.1 5.4 7.4 60 3.8 WNW 48 74 26 40 999.5 999.5 2.4
05/08:30am 15.4 5.5 8.4 63 3.5 WNW 50 67 27 36 999.6 999.6 2.4
05/08:07am 14.9 6.2 7.5 61 3.7 WNW 43 63 23 34 999.2 999.2 2.4
05/08:00am 14.9 6.1 7.2 60 3.8 WNW 43 56 23 30 999.2 999.2 2.4
05/07:30am 14.5 6.3 6.6 59 3.8 NW 39 57 21 31 999.1 999.1 2.4
05/07:00am 13.9 4.2 6.0 59 3.8 WNW 46 67 25 36 998.5 998.5 2.4
05/06:30am 14.2 2.8 7.5 64 3.3 WNW 57 78 31 42 996.8 996.8 2.4
05/06:01am 14.8 3.7 8.7 67 3.1 WNW 57 80 31 43 996.1 996.1 2.4
05/06:00am 14.7 3.6 8.9 68 3.0 WNW 57 72 31 39 996.1 996.1 2.4
05/05:30am 15.0 4.8 11.4 79 1.9 W 56 80 30 43 995.6 995.6 2.4
05/05:12am 15.6 5.0 11.8 78 2.1 W 59 80 32 43 995.2 995.2 2.4
05/05:08am 15.5 5.5 11.9 79 2.0 W 56 72 30 39 995.1 995.0 2.4
05/05:00am 15.4 8.0 12.5 83 1.6 W 43 65 23 35 995.0 994.9 2.4
05/04:38am 16.3 10.7 13.4 83 1.6 W 35 59 19 32 994.4 994.3 2.4
05/04:30am 16.5 13.3 14.3 87 1.3 WNW 24 35 13 19 994.3 994.2 2.4
05/04:00am 16.4 14.0 14.4 88 1.2 NNW 20 28 11 15 993.3 993.2 2.4
05/03:30am 16.1 14.9 13.9 87 1.2 N 13 20 7 11 992.9 992.8 2.2
05/03:00am 16.0 13.9 13.5 85 1.4 N 17 26 9 14 992.7 992.6 1.6
05/02:30am 17.1 14.4 12.8 76 2.4 NNW 19 26 10 14 993.9 993.8 0.6
05/02:00am 20.2 16.7 10.9 55 5.1 N 20 35 11 19 992.7 992.6 0.0
05/01:30am 20.1 17.4 10.5 54 5.2 NNW 15 26 8 14 993.6 993.5 0.0
05/01:00am 20.0 15.4 9.6 51 5.6 N 24 43 13 23 994.0 993.9 0.0
05/12:30am 20.2 15.3 8.5 47 6.1 NNW 24 39 13 21 994.9 994.8 0.0
05/12:00am 20.9 15.9 7.9 43 6.8 N 24 44 13 24 996.1 996.1 0.0
 
Date/Time
EDT
Temp
°C
App
Temp
°C
Dew
Point
°C
Rel
Hum
%
Delta-T
°C
Wind Press
QNH
hPa
Press
MSL
hPa
Rain since
9am
mm
Dir  Spd
km/h
Gust
km/h
Spd
kts
Gust
kts
04/11:30pm 19.8 17.0 8.5 48 5.9 NNE 13 20 7 11 996.8 996.8 0.0
04/11:00pm 20.0 16.8 8.4 47 6.1 NNE 15 24 8 13 997.3 997.3 0.0
04/10:30pm 20.5 16.2 7.8 44 6.6 NNE 20 28 11 15 998.0 998.0 0.0
04/10:00pm 20.5 16.2 7.8 44 6.6 NNE 20 32 11 17 998.4 998.4 0.0
04/09:30pm 20.5 15.1 7.8 44 6.6 NNE 26 37 14 20 998.9 998.9 0.0
04/09:00pm 20.9 15.6 6.8 40 7.2 NNE 24 43 13 23 998.9 998.9 0.0
04/08:30pm 20.8 15.6 7.1 41 7.0 NNE 24 37 13 20 999.5 999.5 0.0
04/08:00pm 20.7 15.9 7.3 42 6.9 NNE 22 35 12 19 999.9 999.9 0.0
04/07:30pm 20.0 16.9 9.0 49 5.8 NE 15 20 8 11 1000.3 1000.3 0.0
04/07:00pm 19.5 17.5 10.2 55 5.0 NE 11 17 6 9 1000.8 1000.8 0.0
04/06:30pm 18.9 17.4 10.5 58 4.5 NE 9 15 5 8 1001.5 1001.5 0.0
04/06:00pm 17.9 16.7 10.3 61 4.1 W 7 9 4 5 1002.1 1002.0 0.0
04/05:30pm 18.2 16.6 10.3 60 4.2 W 9 11 5 6 1002.8 1002.7 0.0
04/05:00pm 18.6 16.5 9.9 57 4.7 W 11 15 6 8 1003.6 1003.5 0.0
04/04:30pm 18.7 16.6 9.8 56 4.7 W 11 15 6 8 1004.2 1004.1 0.0
04/04:00pm 20.8 17.7 8.8 46 6.4 W 15 19 8 10 1004.8 1004.7 0.0
04/03:30pm 22.2 19.6 9.4 44 6.9 WNW 13 17 7 9 1005.5 1005.4 0.0
04/03:00pm 21.8 20.1 9.7 46 6.6 ESE 9 15 5 8 1006.2 1006.1 0.0
04/02:30pm 20.8 17.9 10.9 53 5.4 SE 17 22 9 12 1006.8 1006.7 0.0
04/02:00pm 19.3 16.0 10.8 58 4.6 SE 19 26 10 14 1007.5 1007.4 0.0
04/01:30pm 19.0 16.1 11.1 60 4.3 SE 17 24 9 13 1008.3 1008.2 0.0
04/01:00pm 19.2 16.3 9.7 54 5.1 SE 15 20 8 11 1008.9 1008.8 0.0
04/12:30pm 18.6 16.5 9.7 56 4.7 S 11 15 6 8 1009.4 1009.4 0.0
04/12:00pm 17.4 15.4 10.3 63 3.8 S 11 17 6 9 1010.0 1010.0 0.0
04/11:30am 17.4 14.4 11.9 70 3.0 SE 19 24 10 13 1010.1 1010.1 0.0
04/11:00am 16.2 13.2 10.7 70 2.9 ESE 17 20 9 11 1011.0 1011.0 0.0
04/10:30am 15.5 12.6 9.8 69 3.0 ESE 15 20 8 11 1011.4 1011.4 0.0
04/10:00am 15.2 12.5 8.9 66 3.2 SE 13 17 7 9 1011.5 1011.5 0.0
04/09:30am 15.5 13.7 9.4 67 3.2 SSE 9 13 5 7 1012.0 1012.0 0.0
04/09:00am 15.3 13.7 8.8 65 3.3 NE 7 13 4 7 1012.1 1012.1 0.2
04/08:30am 14.1 11.4 8.9 71 2.6 NNE 13 17 7 9 1012.4 1012.4 0.2
04/08:00am 12.8 9.7 8.9 77 2.0 N 15 19 8 10 1012.7 1012.7 0.2
04/07:30am 11.8 8.7 8.8 82 1.5 NNE 15 20 8 11 1013.1 1013.1 0.2
04/07:00am 10.9 8.3 9.2 89 0.8 N 13 17 7 9 1013.3 1013.3 0.2

Other Formats:

Comma delimited format used in spreadsheet applications
http://www.bom.gov.au/fwo/IDT60801/IDT60801.95967.axf

JavaScript Object Notation format (JSON) in row-major order
http://www.bom.gov.au/fwo/IDT60801/IDT60801.95967.json